sensor_id;sensor_type;location;lat;lon;timestamp;pressure;altitude;pressure_sealevel;temperature
72675;BMP280;60752;53.962;9.614;2023-05-07T00:23:28;58366.16;;;4.72
72675;BMP280;60752;53.962;9.614;2023-05-07T00:53:30;58374.03;;;4.72
72675;BMP280;60752;53.962;9.614;2023-05-07T01:23:32;58376.00;;;4.72
72675;BMP280;60752;53.962;9.614;2023-05-07T01:53:37;58338.59;;;4.72
72675;BMP280;60752;53.962;9.614;2023-05-07T02:23:39;58336.63;;;4.72
72675;BMP280;60752;53.962;9.614;2023-05-07T02:53:40;58364.19;;;4.72
72675;BMP280;60752;53.962;9.614;2023-05-07T03:23:42;58330.72;;;4.72
72675;BMP280;60752;53.962;9.614;2023-05-07T03:53:44;58381.91;;;4.72
72675;BMP280;60752;53.962;9.614;2023-05-07T04:23:46;58389.78;;;4.72
72675;BMP280;60752;53.962;9.614;2023-05-07T04:53:49;58338.59;;;4.72
72675;BMP280;60752;53.962;9.614;2023-05-07T05:23:50;58350.41;;;4.72
72675;BMP280;60752;53.962;9.614;2023-05-07T05:53:52;58389.78;;;4.72
72675;BMP280;60752;53.962;9.614;2023-05-07T06:23:54;58413.41;;;4.72
72675;BMP280;60752;53.962;9.614;2023-05-07T06:53:56;58399.63;;;4.72
72675;BMP280;60752;53.962;9.614;2023-05-07T07:23:58;58397.66;;;4.72
72675;BMP280;60752;53.962;9.614;2023-05-07T07:54:00;58399.63;;;4.72
72675;BMP280;60752;53.962;9.614;2023-05-07T08:24:02;58427.19;;;4.72
72675;BMP280;60752;53.962;9.614;2023-05-07T08:54:04;58411.44;;;4.72
72675;BMP280;60752;53.962;9.614;2023-05-07T09:24:07;58433.09;;;4.72
72675;BMP280;60752;53.962;9.614;2023-05-07T09:54:10;58423.25;;;4.72
72675;BMP280;60752;53.962;9.614;2023-05-07T10:24:16;58435.06;;;4.72
72675;BMP280;60752;53.962;9.614;2023-05-07T10:54:21;58411.44;;;4.72
72675;BMP280;60752;53.962;9.614;2023-05-07T11:24:23;58444.91;;;4.72
72675;BMP280;60752;53.962;9.614;2023-05-07T11:54:25;58437.03;;;4.72
72675;BMP280;60752;53.962;9.614;2023-05-07T12:24:27;58415.38;;;4.72
72675;BMP280;60752;53.962;9.614;2023-05-07T12:54:29;58442.94;;;4.72
72675;BMP280;60752;53.962;9.614;2023-05-07T13:24:31;58435.06;;;4.72
72675;BMP280;60752;53.962;9.614;2023-05-07T13:54:33;58452.78;;;4.72
72675;BMP280;60752;53.962;9.614;2023-05-07T14:24:35;58431.13;;;4.72
72675;BMP280;60752;53.962;9.614;2023-05-07T14:54:37;58429.16;;;4.72
72675;BMP280;60752;53.962;9.614;2023-05-07T15:24:40;58409.47;;;4.72
72675;BMP280;60752;53.962;9.614;2023-05-07T15:54:42;58437.03;;;4.72
72675;BMP280;60752;53.962;9.614;2023-05-07T16:24:43;58437.03;;;4.72
72675;BMP280;60752;53.962;9.614;2023-05-07T16:54:45;58391.75;;;4.72
72675;BMP280;60752;53.962;9.614;2023-05-07T17:24:47;58448.84;;;4.72
72675;BMP280;60752;53.962;9.614;2023-05-07T17:54:49;58440.97;;;4.72
72675;BMP280;60752;53.962;9.614;2023-05-07T18:24:51;58431.13;;;4.72
72675;BMP280;60752;53.962;9.614;2023-05-07T18:54:54;58421.28;;;4.72
72675;BMP280;60752;53.962;9.614;2023-05-07T19:24:56;58427.19;;;4.72
72675;BMP280;60752;53.962;9.614;2023-05-07T19:54:58;58419.31;;;4.72
72675;BMP280;60752;53.962;9.614;2023-05-07T20:25:02;58381.91;;;4.72
72675;BMP280;60752;53.962;9.614;2023-05-07T20:55:05;58419.31;;;4.72
72675;BMP280;60752;53.962;9.614;2023-05-07T21:25:08;58407.50;;;4.72
72675;BMP280;60752;53.962;9.614;2023-05-07T21:55:10;58431.13;;;4.72
72675;BMP280;60752;53.962;9.614;2023-05-07T22:25:12;58389.78;;;4.72
72675;BMP280;60752;53.962;9.614;2023-05-07T22:55:14;58391.75;;;4.72
72675;BMP280;60752;53.962;9.614;2023-05-07T23:25:16;58391.75;;;4.72
72675;BMP280;60752;53.962;9.614;2023-05-07T23:55:18;58425.22;;;4.72
